sensor_id;sensor_type;location;lat;lon;timestamp;P1;durP1;ratioP1;P2;durP2;ratioP2
5416;SDS011;2731;50.754;12.990;2023-07-13T00:00:30;2.10;;;1.60;;
5416;SDS011;2731;50.754;12.990;2023-07-13T00:02:57;5.07;;;1.80;;
5416;SDS011;2731;50.754;12.990;2023-07-13T00:05:42;3.42;;;2.00;;
5416;SDS011;2731;50.754;12.990;2023-07-13T00:08:29;3.78;;;2.05;;
5416;SDS011;2731;50.754;12.990;2023-07-13T00:11:14;3.60;;;1.63;;
5416;SDS011;2731;50.754;12.990;2023-07-13T00:13:59;3.45;;;1.40;;
5416;SDS011;2731;50.754;12.990;2023-07-13T00:16:44;3.08;;;1.73;;
5416;SDS011;2731;50.754;12.990;2023-07-13T00:19:29;3.20;;;1.70;;
5416;SDS011;2731;50.754;12.990;2023-07-13T00:22:14;2.15;;;1.77;;
5416;SDS011;2731;50.754;12.990;2023-07-13T00:24:58;3.75;;;1.80;;
5416;SDS011;2731;50.754;12.990;2023-07-13T00:27:43;2.80;;;2.10;;
5416;SDS011;2731;50.754;12.990;2023-07-13T00:30:28;3.38;;;1.92;;
5416;SDS011;2731;50.754;12.990;2023-07-13T00:33:13;2.67;;;2.10;;
5416;SDS011;2731;50.754;12.990;2023-07-13T00:35:57;4.63;;;2.35;;
5416;SDS011;2731;50.754;12.990;2023-07-13T00:38:36;2.80;;;2.10;;
5416;SDS011;2731;50.754;12.990;2023-07-13T00:41:21;4.28;;;2.60;;
5416;SDS011;2731;50.754;12.990;2023-07-13T00:44:08;4.88;;;2.08;;
5416;SDS011;2731;50.754;12.990;2023-07-13T00:46:53;2.08;;;1.70;;
5416;SDS011;2731;50.754;12.990;2023-07-13T00:49:39;6.05;;;2.35;;
5416;SDS011;2731;50.754;12.990;2023-07-13T00:52:24;7.40;;;2.38;;
5416;SDS011;2731;50.754;12.990;2023-07-13T00:55:09;5.53;;;2.67;;
5416;SDS011;2731;50.754;12.990;2023-07-13T00:57:36;3.17;;;2.05;;
5416;SDS011;2731;50.754;12.990;2023-07-13T01:00:03;3.15;;;2.03;;
5416;SDS011;2731;50.754;12.990;2023-07-13T01:02:49;4.07;;;2.67;;
5416;SDS011;2731;50.754;12.990;2023-07-13T01:05:35;3.88;;;2.05;;
5416;SDS011;2731;50.754;12.990;2023-07-13T01:08:21;3.10;;;2.10;;
5416;SDS011;2731;50.754;12.990;2023-07-13T01:11:05;4.43;;;2.38;;
5416;SDS011;2731;50.754;12.990;2023-07-13T01:13:52;2.58;;;2.38;;
5416;SDS011;2731;50.754;12.990;2023-07-13T01:16:26;5.05;;;2.72;;
5416;SDS011;2731;50.754;12.990;2023-07-13T01:19:16;3.75;;;2.38;;
5416;SDS011;2731;50.754;12.990;2023-07-13T01:24:53;3.10;;;2.28;;
5416;SDS011;2731;50.754;12.990;2023-07-13T01:27:38;3.67;;;2.10;;
5416;SDS011;2731;50.754;12.990;2023-07-13T01:30:25;2.90;;;2.03;;
5416;SDS011;2731;50.754;12.990;2023-07-13T01:33:10;4.40;;;2.17;;
5416;SDS011;2731;50.754;12.990;2023-07-13T01:35:38;3.70;;;1.90;;
5416;SDS011;2731;50.754;12.990;2023-07-13T01:38:04;3.50;;;2.30;;
5416;SDS011;2731;50.754;12.990;2023-07-13T01:40:31;5.40;;;2.13;;
5416;SDS011;2731;50.754;12.990;2023-07-13T01:42:58;2.78;;;2.40;;
5416;SDS011;2731;50.754;12.990;2023-07-13T01:45:42;3.70;;;2.33;;
5416;SDS011;2731;50.754;12.990;2023-07-13T01:48:28;3.40;;;1.83;;
5416;SDS011;2731;50.754;12.990;2023-07-13T01:51:12;3.60;;;2.53;;
5416;SDS011;2731;50.754;12.990;2023-07-13T01:53:57;2.90;;;2.10;;
5416;SDS011;2731;50.754;12.990;2023-07-13T01:56:42;4.60;;;2.22;;
5416;SDS011;2731;50.754;12.990;2023-07-13T01:59:08;6.00;;;2.20;;
5416;SDS011;2731;50.754;12.990;2023-07-13T02:01:34;2.30;;;2.10;;
5416;SDS011;2731;50.754;12.990;2023-07-13T02:04:00;2.75;;;2.35;;
5416;SDS011;2731;50.754;12.990;2023-07-13T02:06:26;3.53;;;2.53;;
5416;SDS011;2731;50.754;12.990;2023-07-13T02:09:11;5.95;;;2.30;;
5416;SDS011;2731;50.754;12.990;2023-07-13T02:11:55;2.20;;;2.00;;
5416;SDS011;2731;50.754;12.990;2023-07-13T02:14:40;4.70;;;2.50;;
5416;SDS011;2731;50.754;12.990;2023-07-13T02:17:25;2.47;;;2.20;;
5416;SDS011;2731;50.754;12.990;2023-07-13T02:20:10;4.28;;;2.22;;
5416;SDS011;2731;50.754;12.990;2023-07-13T02:22:36;3.53;;;2.33;;
5416;SDS011;2731;50.754;12.990;2023-07-13T02:25:21;3.95;;;1.92;;
5416;SDS011;2731;50.754;12.990;2023-07-13T02:28:02;3.40;;;2.15;;
5416;SDS011;2731;50.754;12.990;2023-07-13T02:30:29;4.35;;;2.53;;
5416;SDS011;2731;50.754;12.990;2023-07-13T02:32:55;4.28;;;2.50;;
5416;SDS011;2731;50.754;12.990;2023-07-13T02:35:22;3.50;;;2.65;;
5416;SDS011;2731;50.754;12.990;2023-07-13T02:37:48;3.90;;;2.05;;
5416;SDS011;2731;50.754;12.990;2023-07-13T02:40:14;2.65;;;2.08;;
5416;SDS011;2731;50.754;12.990;2023-07-13T02:42:59;2.25;;;1.80;;
5416;SDS011;2731;50.754;12.990;2023-07-13T02:45:44;2.85;;;2.28;;
5416;SDS011;2731;50.754;12.990;2023-07-13T02:48:29;5.68;;;2.20;;
5416;SDS011;2731;50.754;12.990;2023-07-13T02:51:14;4.30;;;2.40;;
5416;SDS011;2731;50.754;12.990;2023-07-13T02:53:58;3.03;;;2.17;;
5416;SDS011;2731;50.754;12.990;2023-07-13T02:56:26;4.38;;;1.70;;
5416;SDS011;2731;50.754;12.990;2023-07-13T02:58:52;2.47;;;2.00;;
5416;SDS011;2731;50.754;12.990;2023-07-13T03:01:38;3.38;;;1.83;;
5416;SDS011;2731;50.754;12.990;2023-07-13T03:04:22;2.42;;;2.17;;
5416;SDS011;2731;50.754;12.990;2023-07-13T03:06:48;3.75;;;2.47;;
5416;SDS011;2731;50.754;12.990;2023-07-13T03:09:15;3.75;;;2.42;;
5416;SDS011;2731;50.754;12.990;2023-07-13T03:11:41;2.97;;;2.38;;
5416;SDS011;2731;50.754;12.990;2023-07-13T03:14:07;3.65;;;2.58;;
5416;SDS011;2731;50.754;12.990;2023-07-13T03:16:52;6.68;;;2.42;;
5416;SDS011;2731;50.754;12.990;2023-07-13T03:19:37;3.47;;;2.45;;
5416;SDS011;2731;50.754;12.990;2023-07-13T03:22:21;2.75;;;2.50;;
5416;SDS011;2731;50.754;12.990;2023-07-13T03:25:06;3.40;;;2.63;;
5416;SDS011;2731;50.754;12.990;2023-07-13T03:27:51;2.92;;;2.45;;
5416;SDS011;2731;50.754;12.990;2023-07-13T03:30:32;2.42;;;1.90;;
5416;SDS011;2731;50.754;12.990;2023-07-13T03:33:17;3.22;;;2.13;;
5416;SDS011;2731;50.754;12.990;2023-07-13T03:36:02;2.95;;;1.83;;
5416;SDS011;2731;50.754;12.990;2023-07-13T03:38:47;3.72;;;2.17;;
5416;SDS011;2731;50.754;12.990;2023-07-13T03:41:32;4.40;;;2.40;;
5416;SDS011;2731;50.754;12.990;2023-07-13T03:44:18;3.05;;;2.75;;
5416;SDS011;2731;50.754;12.990;2023-07-13T03:47:04;3.08;;;2.28;;
5416;SDS011;2731;50.754;12.990;2023-07-13T03:49:49;2.33;;;2.13;;
5416;SDS011;2731;50.754;12.990;2023-07-13T03:52:34;4.70;;;2.30;;
5416;SDS011;2731;50.754;12.990;2023-07-13T03:55:18;3.42;;;2.10;;
5416;SDS011;2731;50.754;12.990;2023-07-13T04:01:07;2.60;;;2.40;;
5416;SDS011;2731;50.754;12.990;2023-07-13T04:03:52;3.45;;;2.42;;
5416;SDS011;2731;50.754;12.990;2023-07-13T04:06:23;3.53;;;2.35;;
5416;SDS011;2731;50.754;12.990;2023-07-13T04:09:08;7.88;;;2.85;;
5416;SDS011;2731;50.754;12.990;2023-07-13T04:11:53;3.10;;;2.80;;
5416;SDS011;2731;50.754;12.990;2023-07-13T04:14:38;3.53;;;2.67;;
5416;SDS011;2731;50.754;12.990;2023-07-13T04:17:22;2.95;;;2.20;;
5416;SDS011;2731;50.754;12.990;2023-07-13T04:20:07;4.70;;;2.40;;
5416;SDS011;2731;50.754;12.990;2023-07-13T04:22:47;4.05;;;2.60;;
5416;SDS011;2731;50.754;12.990;2023-07-13T04:25:32;2.80;;;2.50;;
5416;SDS011;2731;50.754;12.990;2023-07-13T04:28:16;3.60;;;2.97;;
5416;SDS011;2731;50.754;12.990;2023-07-13T04:31:01;4.07;;;3.15;;
5416;SDS011;2731;50.754;12.990;2023-07-13T04:33:47;3.90;;;2.58;;
5416;SDS011;2731;50.754;12.990;2023-07-13T04:36:32;4.47;;;2.83;;
5416;SDS011;2731;50.754;12.990;2023-07-13T04:39:17;2.95;;;2.72;;
5416;SDS011;2731;50.754;12.990;2023-07-13T04:41:43;3.50;;;2.80;;
5416;SDS011;2731;50.754;12.990;2023-07-13T04:44:28;3.38;;;3.08;;
5416;SDS011;2731;50.754;12.990;2023-07-13T04:47:12;4.50;;;3.15;;
5416;SDS011;2731;50.754;12.990;2023-07-13T04:49:57;4.40;;;3.10;;
5416;SDS011;2731;50.754;12.990;2023-07-13T04:52:41;3.55;;;2.58;;
5416;SDS011;2731;50.754;12.990;2023-07-13T04:55:26;6.72;;;3.35;;
5416;SDS011;2731;50.754;12.990;2023-07-13T04:58:14;6.20;;;2.83;;
5416;SDS011;2731;50.754;12.990;2023-07-13T05:00:59;3.00;;;2.70;;
5416;SDS011;2731;50.754;12.990;2023-07-13T05:03:44;2.65;;;2.40;;
5416;SDS011;2731;50.754;12.990;2023-07-13T05:06:29;4.82;;;2.85;;
5416;SDS011;2731;50.754;12.990;2023-07-13T05:09:15;3.65;;;2.92;;
5416;SDS011;2731;50.754;12.990;2023-07-13T05:11:42;3.88;;;3.33;;
5416;SDS011;2731;50.754;12.990;2023-07-13T05:14:09;3.45;;;2.90;;
5416;SDS011;2731;50.754;12.990;2023-07-13T05:16:53;6.03;;;2.53;;
5416;SDS011;2731;50.754;12.990;2023-07-13T05:19:38;6.00;;;2.70;;
5416;SDS011;2731;50.754;12.990;2023-07-13T05:22:22;4.50;;;3.25;;
5416;SDS011;2731;50.754;12.990;2023-07-13T05:25:07;3.30;;;2.53;;
5416;SDS011;2731;50.754;12.990;2023-07-13T05:27:52;3.88;;;2.70;;
5416;SDS011;2731;50.754;12.990;2023-07-13T05:30:37;4.43;;;2.70;;
5416;SDS011;2731;50.754;12.990;2023-07-13T05:33:22;3.47;;;2.85;;
5416;SDS011;2731;50.754;12.990;2023-07-13T05:36:06;5.78;;;2.95;;
5416;SDS011;2731;50.754;12.990;2023-07-13T05:38:51;3.22;;;2.47;;
5416;SDS011;2731;50.754;12.990;2023-07-13T05:41:36;3.30;;;2.50;;
5416;SDS011;2731;50.754;12.990;2023-07-13T05:44:20;3.83;;;2.53;;
5416;SDS011;2731;50.754;12.990;2023-07-13T05:47:05;4.55;;;3.00;;
5416;SDS011;2731;50.754;12.990;2023-07-13T05:49:50;6.10;;;2.92;;
5416;SDS011;2731;50.754;12.990;2023-07-13T05:52:34;5.30;;;2.30;;
5416;SDS011;2731;50.754;12.990;2023-07-13T05:55:19;4.78;;;2.10;;
5416;SDS011;2731;50.754;12.990;2023-07-13T05:58:04;2.83;;;1.92;;
5416;SDS011;2731;50.754;12.990;2023-07-13T06:00:57;3.53;;;2.20;;
5416;SDS011;2731;50.754;12.990;2023-07-13T06:03:42;3.60;;;2.25;;
5416;SDS011;2731;50.754;12.990;2023-07-13T06:06:24;5.82;;;2.78;;
5416;SDS011;2731;50.754;12.990;2023-07-13T06:09:09;7.20;;;2.50;;
5416;SDS011;2731;50.754;12.990;2023-07-13T06:11:35;4.32;;;2.50;;
5416;SDS011;2731;50.754;12.990;2023-07-13T06:14:01;3.58;;;2.30;;
5416;SDS011;2731;50.754;12.990;2023-07-13T06:16:29;2.45;;;1.92;;
5416;SDS011;2731;50.754;12.990;2023-07-13T06:18:55;5.43;;;2.63;;
5416;SDS011;2731;50.754;12.990;2023-07-13T06:21:22;4.65;;;2.60;;
5416;SDS011;2731;50.754;12.990;2023-07-13T06:23:49;2.90;;;2.13;;
5416;SDS011;2731;50.754;12.990;2023-07-13T06:26:16;5.38;;;2.67;;
5416;SDS011;2731;50.754;12.990;2023-07-13T06:28:43;2.95;;;2.25;;
5416;SDS011;2731;50.754;12.990;2023-07-13T06:31:10;4.43;;;2.38;;
5416;SDS011;2731;50.754;12.990;2023-07-13T06:33:36;3.30;;;2.28;;
5416;SDS011;2731;50.754;12.990;2023-07-13T06:36:03;5.35;;;3.40;;
5416;SDS011;2731;50.754;12.990;2023-07-13T06:38:30;3.90;;;2.97;;
5416;SDS011;2731;50.754;12.990;2023-07-13T06:40:56;4.53;;;2.60;;
5416;SDS011;2731;50.754;12.990;2023-07-13T06:43:22;7.20;;;2.50;;
5416;SDS011;2731;50.754;12.990;2023-07-13T06:45:50;6.00;;;2.58;;
5416;SDS011;2731;50.754;12.990;2023-07-13T06:48:16;10.02;;;2.90;;
5416;SDS011;2731;50.754;12.990;2023-07-13T06:50:43;5.20;;;2.10;;
5416;SDS011;2731;50.754;12.990;2023-07-13T06:53:10;4.70;;;2.70;;
5416;SDS011;2731;50.754;12.990;2023-07-13T06:55:37;11.98;;;3.58;;
5416;SDS011;2731;50.754;12.990;2023-07-13T06:58:05;5.80;;;3.20;;
5416;SDS011;2731;50.754;12.990;2023-07-13T07:00:32;6.85;;;2.75;;
5416;SDS011;2731;50.754;12.990;2023-07-13T07:02:58;5.72;;;2.47;;
5416;SDS011;2731;50.754;12.990;2023-07-13T07:05:25;7.18;;;2.75;;
5416;SDS011;2731;50.754;12.990;2023-07-13T07:07:53;5.85;;;2.40;;
5416;SDS011;2731;50.754;12.990;2023-07-13T07:10:19;5.50;;;2.20;;
5416;SDS011;2731;50.754;12.990;2023-07-13T07:12:46;3.85;;;2.17;;
5416;SDS011;2731;50.754;12.990;2023-07-13T07:15:12;6.53;;;2.72;;
5416;SDS011;2731;50.754;12.990;2023-07-13T07:17:38;6.03;;;3.15;;
5416;SDS011;2731;50.754;12.990;2023-07-13T07:20:05;3.47;;;2.10;;
5416;SDS011;2731;50.754;12.990;2023-07-13T07:22:31;4.63;;;2.03;;
5416;SDS011;2731;50.754;12.990;2023-07-13T07:24:57;4.05;;;2.17;;
5416;SDS011;2731;50.754;12.990;2023-07-13T07:27:24;4.65;;;2.90;;
5416;SDS011;2731;50.754;12.990;2023-07-13T07:29:50;2.97;;;1.80;;
5416;SDS011;2731;50.754;12.990;2023-07-13T07:32:17;2.78;;;1.80;;
5416;SDS011;2731;50.754;12.990;2023-07-13T07:34:47;4.22;;;1.92;;
5416;SDS011;2731;50.754;12.990;2023-07-13T07:37:13;7.32;;;2.00;;
5416;SDS011;2731;50.754;12.990;2023-07-13T07:39:40;4.90;;;1.73;;
5416;SDS011;2731;50.754;12.990;2023-07-13T07:42:11;3.40;;;1.88;;
5416;SDS011;2731;50.754;12.990;2023-07-13T07:44:38;3.35;;;2.00;;
5416;SDS011;2731;50.754;12.990;2023-07-13T07:47:04;5.53;;;1.85;;
5416;SDS011;2731;50.754;12.990;2023-07-13T07:49:31;6.32;;;1.83;;
5416;SDS011;2731;50.754;12.990;2023-07-13T07:51:58;4.97;;;1.50;;
5416;SDS011;2731;50.754;12.990;2023-07-13T07:54:24;2.30;;;1.65;;
5416;SDS011;2731;50.754;12.990;2023-07-13T07:56:51;6.55;;;2.20;;
5416;SDS011;2731;50.754;12.990;2023-07-13T07:59:18;3.40;;;2.17;;
5416;SDS011;2731;50.754;12.990;2023-07-13T08:01:44;4.07;;;2.25;;
5416;SDS011;2731;50.754;12.990;2023-07-13T08:04:13;5.43;;;1.80;;
5416;SDS011;2731;50.754;12.990;2023-07-13T08:06:39;2.85;;;1.90;;
5416;SDS011;2731;50.754;12.990;2023-07-13T08:09:05;4.85;;;1.77;;
5416;SDS011;2731;50.754;12.990;2023-07-13T08:11:31;3.97;;;2.17;;
5416;SDS011;2731;50.754;12.990;2023-07-13T08:13:57;3.20;;;1.75;;
5416;SDS011;2731;50.754;12.990;2023-07-13T08:16:23;3.75;;;1.88;;
5416;SDS011;2731;50.754;12.990;2023-07-13T08:18:50;3.15;;;2.25;;
5416;SDS011;2731;50.754;12.990;2023-07-13T08:21:16;4.47;;;2.15;;
5416;SDS011;2731;50.754;12.990;2023-07-13T08:23:45;3.47;;;2.00;;
5416;SDS011;2731;50.754;12.990;2023-07-13T08:26:11;3.22;;;2.13;;
5416;SDS011;2731;50.754;12.990;2023-07-13T08:28:37;7.20;;;2.50;;
5416;SDS011;2731;50.754;12.990;2023-07-13T08:31:07;4.85;;;2.05;;
5416;SDS011;2731;50.754;12.990;2023-07-13T08:33:34;6.47;;;2.47;;
5416;SDS011;2731;50.754;12.990;2023-07-13T08:36:00;4.53;;;2.13;;
5416;SDS011;2731;50.754;12.990;2023-07-13T08:38:26;3.20;;;2.25;;
5416;SDS011;2731;50.754;12.990;2023-07-13T08:40:56;5.32;;;2.20;;
5416;SDS011;2731;50.754;12.990;2023-07-13T08:43:25;3.35;;;1.83;;
5416;SDS011;2731;50.754;12.990;2023-07-13T08:48:46;2.70;;;2.07;;
5416;SDS011;2731;50.754;12.990;2023-07-13T08:53:47;2.85;;;2.00;;
5416;SDS011;2731;50.754;12.990;2023-07-13T08:56:24;6.70;;;2.38;;
5416;SDS011;2731;50.754;12.990;2023-07-13T08:58:53;5.25;;;2.42;;
5416;SDS011;2731;50.754;12.990;2023-07-13T09:06:21;4.22;;;1.98;;
5416;SDS011;2731;50.754;12.990;2023-07-13T09:08:55;4.80;;;2.10;;
5416;SDS011;2731;50.754;12.990;2023-07-13T09:11:28;5.95;;;1.63;;
5416;SDS011;2731;50.754;12.990;2023-07-13T09:14:01;5.20;;;2.10;;
5416;SDS011;2731;50.754;12.990;2023-07-13T09:16:28;3.83;;;1.98;;
5416;SDS011;2731;50.754;12.990;2023-07-13T09:18:55;4.13;;;1.70;;
5416;SDS011;2731;50.754;12.990;2023-07-13T09:21:23;4.80;;;2.10;;
5416;SDS011;2731;50.754;12.990;2023-07-13T09:23:54;5.75;;;2.53;;
5416;SDS011;2731;50.754;12.990;2023-07-13T09:26:23;2.88;;;1.42;;
5416;SDS011;2731;50.754;12.990;2023-07-13T09:28:50;5.40;;;1.95;;
5416;SDS011;2731;50.754;12.990;2023-07-13T09:31:23;3.05;;;1.42;;
5416;SDS011;2731;50.754;12.990;2023-07-13T09:33:50;4.28;;;1.95;;
5416;SDS011;2731;50.754;12.990;2023-07-13T09:38:46;2.53;;;1.05;;
5416;SDS011;2731;50.754;12.990;2023-07-13T09:44:14;4.75;;;1.30;;
5416;SDS011;2731;50.754;12.990;2023-07-13T09:46:44;2.55;;;1.23;;
5416;SDS011;2731;50.754;12.990;2023-07-13T09:49:11;2.17;;;1.25;;
5416;SDS011;2731;50.754;12.990;2023-07-13T09:51:38;3.05;;;1.55;;
5416;SDS011;2731;50.754;12.990;2023-07-13T09:54:04;8.00;;;1.98;;
5416;SDS011;2731;50.754;12.990;2023-07-13T09:56:30;4.13;;;1.13;;
5416;SDS011;2731;50.754;12.990;2023-07-13T09:58:57;3.75;;;1.50;;
5416;SDS011;2731;50.754;12.990;2023-07-13T10:01:37;4.82;;;1.92;;
5416;SDS011;2731;50.754;12.990;2023-07-13T10:04:10;2.88;;;1.27;;
5416;SDS011;2731;50.754;12.990;2023-07-13T10:06:38;4.28;;;1.30;;
5416;SDS011;2731;50.754;12.990;2023-07-13T10:09:08;13.68;;;2.10;;
5416;SDS011;2731;50.754;12.990;2023-07-13T10:11:35;2.85;;;1.23;;
5416;SDS011;2731;50.754;12.990;2023-07-13T10:14:23;4.15;;;1.92;;
5416;SDS011;2731;50.754;12.990;2023-07-13T10:16:51;5.05;;;1.98;;
5416;SDS011;2731;50.754;12.990;2023-07-13T10:19:23;7.68;;;2.20;;
5416;SDS011;2731;50.754;12.990;2023-07-13T10:21:55;4.75;;;1.90;;
5416;SDS011;2731;50.754;12.990;2023-07-13T10:24:22;3.55;;;1.83;;
5416;SDS011;2731;50.754;12.990;2023-07-13T10:26:52;4.28;;;1.77;;
5416;SDS011;2731;50.754;12.990;2023-07-13T10:29:20;4.80;;;1.67;;
5416;SDS011;2731;50.754;12.990;2023-07-13T10:31:48;5.57;;;1.63;;
5416;SDS011;2731;50.754;12.990;2023-07-13T10:34:15;4.50;;;2.60;;
5416;SDS011;2731;50.754;12.990;2023-07-13T10:36:47;4.72;;;1.90;;
5416;SDS011;2731;50.754;12.990;2023-07-13T10:39:24;6.03;;;2.15;;
5416;SDS011;2731;50.754;12.990;2023-07-13T10:41:59;3.78;;;1.77;;
5416;SDS011;2731;50.754;12.990;2023-07-13T10:44:30;5.88;;;2.00;;
5416;SDS011;2731;50.754;12.990;2023-07-13T10:47:04;8.45;;;1.98;;
5416;SDS011;2731;50.754;12.990;2023-07-13T10:49:32;5.88;;;1.80;;
5416;SDS011;2731;50.754;12.990;2023-07-13T10:52:01;4.07;;;1.83;;
5416;SDS011;2731;50.754;12.990;2023-07-13T10:57:06;4.57;;;1.80;;
5416;SDS011;2731;50.754;12.990;2023-07-13T10:59:34;5.50;;;1.47;;
5416;SDS011;2731;50.754;12.990;2023-07-13T11:06:59;4.40;;;1.80;;
5416;SDS011;2731;50.754;12.990;2023-07-13T11:09:33;2.80;;;1.50;;
5416;SDS011;2731;50.754;12.990;2023-07-13T11:12:08;7.00;;;1.92;;
5416;SDS011;2731;50.754;12.990;2023-07-13T11:15:03;3.88;;;1.83;;
5416;SDS011;2731;50.754;12.990;2023-07-13T11:20:10;5.00;;;1.42;;
5416;SDS011;2731;50.754;12.990;2023-07-13T11:25:25;3.75;;;1.50;;
5416;SDS011;2731;50.754;12.990;2023-07-13T11:30:37;6.80;;;1.73;;
5416;SDS011;2731;50.754;12.990;2023-07-13T11:38:16;3.78;;;1.73;;
5416;SDS011;2731;50.754;12.990;2023-07-13T11:40:44;3.35;;;1.63;;
5416;SDS011;2731;50.754;12.990;2023-07-13T11:43:14;5.68;;;2.17;;
5416;SDS011;2731;50.754;12.990;2023-07-13T11:45:41;7.80;;;1.85;;
5416;SDS011;2731;50.754;12.990;2023-07-13T11:48:23;3.45;;;1.38;;
5416;SDS011;2731;50.754;12.990;2023-07-13T11:50:51;2.83;;;1.50;;
5416;SDS011;2731;50.754;12.990;2023-07-13T11:53:17;3.05;;;1.27;;
5416;SDS011;2731;50.754;12.990;2023-07-13T11:55:43;2.65;;;1.17;;
5416;SDS011;2731;50.754;12.990;2023-07-13T11:58:11;4.10;;;1.40;;
5416;SDS011;2731;50.754;12.990;2023-07-13T12:00:38;2.13;;;1.27;;
5416;SDS011;2731;50.754;12.990;2023-07-13T12:03:06;2.80;;;1.20;;
5416;SDS011;2731;50.754;12.990;2023-07-13T12:05:33;4.35;;;1.30;;
5416;SDS011;2731;50.754;12.990;2023-07-13T12:08:00;4.32;;;1.30;;
5416;SDS011;2731;50.754;12.990;2023-07-13T12:10:36;4.15;;;1.20;;
5416;SDS011;2731;50.754;12.990;2023-07-13T12:13:04;2.40;;;1.40;;
5416;SDS011;2731;50.754;12.990;2023-07-13T12:15:38;6.15;;;1.75;;
5416;SDS011;2731;50.754;12.990;2023-07-13T12:18:12;5.35;;;1.60;;
5416;SDS011;2731;50.754;12.990;2023-07-13T12:20:39;3.28;;;1.58;;
5416;SDS011;2731;50.754;12.990;2023-07-13T12:23:10;3.55;;;1.48;;
5416;SDS011;2731;50.754;12.990;2023-07-13T12:25:40;4.53;;;1.75;;
5416;SDS011;2731;50.754;12.990;2023-07-13T12:30:54;3.50;;;1.02;;
5416;SDS011;2731;50.754;12.990;2023-07-13T12:33:23;3.83;;;1.40;;
5416;SDS011;2731;50.754;12.990;2023-07-13T12:35:52;3.40;;;1.38;;
5416;SDS011;2731;50.754;12.990;2023-07-13T12:38:19;6.75;;;1.55;;
5416;SDS011;2731;50.754;12.990;2023-07-13T12:40:51;2.83;;;1.63;;
5416;SDS011;2731;50.754;12.990;2023-07-13T12:43:20;5.15;;;1.73;;
5416;SDS011;2731;50.754;12.990;2023-07-13T12:45:56;4.60;;;1.65;;
5416;SDS011;2731;50.754;12.990;2023-07-13T12:48:23;3.35;;;1.40;;
5416;SDS011;2731;50.754;12.990;2023-07-13T12:50:50;3.40;;;1.30;;
5416;SDS011;2731;50.754;12.990;2023-07-13T12:53:27;3.63;;;1.38;;
5416;SDS011;2731;50.754;12.990;2023-07-13T12:55:57;4.20;;;1.40;;
5416;SDS011;2731;50.754;12.990;2023-07-13T13:01:02;3.45;;;1.45;;
5416;SDS011;2731;50.754;12.990;2023-07-13T13:05:56;5.80;;;1.30;;
5416;SDS011;2731;50.754;12.990;2023-07-13T13:08:24;6.60;;;1.88;;
5416;SDS011;2731;50.754;12.990;2023-07-13T13:10:51;3.45;;;1.40;;
5416;SDS011;2731;50.754;12.990;2023-07-13T13:13:17;3.22;;;1.33;;
5416;SDS011;2731;50.754;12.990;2023-07-13T13:15:43;6.53;;;1.77;;
5416;SDS011;2731;50.754;12.990;2023-07-13T13:18:19;6.35;;;1.42;;
5416;SDS011;2731;50.754;12.990;2023-07-13T13:20:51;3.13;;;1.50;;
5416;SDS011;2731;50.754;12.990;2023-07-13T13:23:18;3.38;;;1.45;;
5416;SDS011;2731;50.754;12.990;2023-07-13T13:25:45;4.13;;;1.38;;
5416;SDS011;2731;50.754;12.990;2023-07-13T13:28:16;5.30;;;1.30;;
5416;SDS011;2731;50.754;12.990;2023-07-13T13:30:43;2.53;;;1.30;;
5416;SDS011;2731;50.754;12.990;2023-07-13T13:33:13;4.85;;;1.27;;
5416;SDS011;2731;50.754;12.990;2023-07-13T13:35:40;2.83;;;1.30;;
5416;SDS011;2731;50.754;12.990;2023-07-13T13:38:10;4.85;;;1.63;;
5416;SDS011;2731;50.754;12.990;2023-07-13T13:40:37;5.25;;;1.45;;
5416;SDS011;2731;50.754;12.990;2023-07-13T13:43:07;2.92;;;1.23;;
5416;SDS011;2731;50.754;12.990;2023-07-13T13:45:34;2.90;;;1.55;;
5416;SDS011;2731;50.754;12.990;2023-07-13T13:48:01;2.75;;;1.48;;
5416;SDS011;2731;50.754;12.990;2023-07-13T13:50:27;4.30;;;1.50;;
5416;SDS011;2731;50.754;12.990;2023-07-13T13:52:54;4.93;;;1.95;;
5416;SDS011;2731;50.754;12.990;2023-07-13T13:55:20;3.38;;;1.50;;
5416;SDS011;2731;50.754;12.990;2023-07-13T13:57:49;6.05;;;1.50;;
5416;SDS011;2731;50.754;12.990;2023-07-13T14:00:16;3.75;;;1.40;;
5416;SDS011;2731;50.754;12.990;2023-07-13T14:02:47;3.85;;;1.33;;
5416;SDS011;2731;50.754;12.990;2023-07-13T14:05:20;2.53;;;1.50;;
5416;SDS011;2731;50.754;12.990;2023-07-13T14:07:47;6.07;;;1.52;;
5416;SDS011;2731;50.754;12.990;2023-07-13T14:10:14;5.90;;;1.50;;
5416;SDS011;2731;50.754;12.990;2023-07-13T14:12:44;2.92;;;1.20;;
5416;SDS011;2731;50.754;12.990;2023-07-13T14:17:46;3.22;;;1.27;;
5416;SDS011;2731;50.754;12.990;2023-07-13T14:20:15;4.22;;;1.30;;
5416;SDS011;2731;50.754;12.990;2023-07-13T14:22:41;5.05;;;1.30;;
5416;SDS011;2731;50.754;12.990;2023-07-13T14:25:13;1.85;;;1.20;;
5416;SDS011;2731;50.754;12.990;2023-07-13T14:27:41;2.55;;;1.05;;
5416;SDS011;2731;50.754;12.990;2023-07-13T14:30:14;4.20;;;1.65;;
5416;SDS011;2731;50.754;12.990;2023-07-13T14:32:41;2.05;;;1.00;;
5416;SDS011;2731;50.754;12.990;2023-07-13T14:35:10;2.08;;;1.13;;
5416;SDS011;2731;50.754;12.990;2023-07-13T14:37:37;1.80;;;1.23;;
5416;SDS011;2731;50.754;12.990;2023-07-13T14:40:04;1.50;;;1.30;;
5416;SDS011;2731;50.754;12.990;2023-07-13T14:42:37;13.27;;;6.03;;
5416;SDS011;2731;50.754;12.990;2023-07-13T14:45:03;11.15;;;2.47;;
5416;SDS011;2731;50.754;12.990;2023-07-13T14:47:30;1.73;;;1.10;;
5416;SDS011;2731;50.754;12.990;2023-07-13T14:49:56;2.53;;;1.20;;
5416;SDS011;2731;50.754;12.990;2023-07-13T14:52:23;2.88;;;0.90;;
5416;SDS011;2731;50.754;12.990;2023-07-13T14:54:51;4.05;;;1.10;;
5416;SDS011;2731;50.754;12.990;2023-07-13T14:57:18;2.72;;;1.00;;
5416;SDS011;2731;50.754;12.990;2023-07-13T14:59:44;2.63;;;0.90;;
5416;SDS011;2731;50.754;12.990;2023-07-13T15:02:32;2.40;;;0.80;;
5416;SDS011;2731;50.754;12.990;2023-07-13T15:04:57;2.15;;;0.70;;
5416;SDS011;2731;50.754;12.990;2023-07-13T15:07:24;1.45;;;0.80;;
5416;SDS011;2731;50.754;12.990;2023-07-13T15:09:50;1.85;;;0.60;;
5416;SDS011;2731;50.754;12.990;2023-07-13T15:12:18;3.00;;;0.82;;
5416;SDS011;2731;50.754;12.990;2023-07-13T15:14:45;1.95;;;0.60;;
5416;SDS011;2731;50.754;12.990;2023-07-13T15:19:52;1.88;;;0.93;;
5416;SDS011;2731;50.754;12.990;2023-07-13T15:22:20;4.43;;;0.70;;
5416;SDS011;2731;50.754;12.990;2023-07-13T15:24:47;1.25;;;0.60;;
5416;SDS011;2731;50.754;12.990;2023-07-13T15:27:15;1.15;;;0.73;;
5416;SDS011;2731;50.754;12.990;2023-07-13T15:29:44;2.72;;;0.75;;
5416;SDS011;2731;50.754;12.990;2023-07-13T15:32:14;1.33;;;0.43;;
5416;SDS011;2731;50.754;12.990;2023-07-13T15:34:40;0.77;;;0.57;;
5416;SDS011;2731;50.754;12.990;2023-07-13T15:37:14;1.38;;;0.73;;
5416;SDS011;2731;50.754;12.990;2023-07-13T15:39:41;2.10;;;0.63;;
5416;SDS011;2731;50.754;12.990;2023-07-13T15:42:14;1.45;;;0.50;;
5416;SDS011;2731;50.754;12.990;2023-07-13T15:44:41;0.98;;;0.50;;
5416;SDS011;2731;50.754;12.990;2023-07-13T15:47:11;2.72;;;0.50;;
5416;SDS011;2731;50.754;12.990;2023-07-13T15:49:38;2.88;;;0.70;;
5416;SDS011;2731;50.754;12.990;2023-07-13T15:52:04;1.33;;;0.80;;
5416;SDS011;2731;50.754;12.990;2023-07-13T15:54:31;2.47;;;0.55;;
5416;SDS011;2731;50.754;12.990;2023-07-13T15:56:57;2.47;;;0.55;;
5416;SDS011;2731;50.754;12.990;2023-07-13T15:59:26;2.55;;;1.00;;
5416;SDS011;2731;50.754;12.990;2023-07-13T16:01:54;2.33;;;0.75;;
5416;SDS011;2731;50.754;12.990;2023-07-13T16:04:20;2.10;;;0.55;;
5416;SDS011;2731;50.754;12.990;2023-07-13T16:06:47;5.07;;;0.82;;
5416;SDS011;2731;50.754;12.990;2023-07-13T16:09:17;1.52;;;0.40;;
5416;SDS011;2731;50.754;12.990;2023-07-13T16:11:44;1.33;;;0.70;;
5416;SDS011;2731;50.754;12.990;2023-07-13T16:14:13;1.17;;;0.65;;
5416;SDS011;2731;50.754;12.990;2023-07-13T16:16:40;6.65;;;1.00;;
5416;SDS011;2731;50.754;12.990;2023-07-13T16:19:07;2.05;;;0.73;;
5416;SDS011;2731;50.754;12.990;2023-07-13T16:21:35;1.20;;;0.70;;
5416;SDS011;2731;50.754;12.990;2023-07-13T16:24:02;1.60;;;0.70;;
5416;SDS011;2731;50.754;12.990;2023-07-13T16:26:30;0.77;;;0.60;;
5416;SDS011;2731;50.754;12.990;2023-07-13T16:29:20;3.50;;;0.70;;
5416;SDS011;2731;50.754;12.990;2023-07-13T16:34:22;1.80;;;1.02;;